Airfield :
LOGIN :

Register | Disclaimer

   EN    FR    IT 

 










Legend :    VFR   Marginal VFR   IFR   Intensive IFR   Very Intensive IFR
Visi :
Ceiling :
>= 8 km
>= 3000ft
5 to 8 km
1000 to 3000 ft
1500m to 5 km
500 to 1000 ft
800 to 1500m
200 to 500 ft
< 800m
< 200 ft
Symbols :   Thunderstorms  Fog  Heavy snow  Heavy precipitations  Wind > 20 kt
SIGMETs :     Misc.  Thunderstorms  Icing  Turbulence  Mountain Waves  Volcanic Ashes







- Airport Elevation : 598 ft
- IATA code : BQH
- Download approach charts


EGKB - Biggin Hill

CURRENT METAR :
  • 221750Z VRB03KT CAVOK 26/13 Q1016

EXPIRED METARs :
  • 221720Z 28005KT 250V310 CAVOK 26/13 Q1016
  • 221650Z 25004KT 210V300 CAVOK 26/13 Q1016
  • 221620Z 29006KT 250V340 CAVOK 26/14 Q1016
  • 221550Z 29005KT 230V340 CAVOK 26/13 Q1016
  • 221520Z 29007KT 250V330 CAVOK 26/12 Q1016
  • 221450Z 27006KT 230V320 CAVOK 26/12 Q1016

TAF TAF EGKB
Valid from the 22 at 18:00 until the 22 at 21:00 UTC


221655Z 2218/2221 28006KT 9999 SCT045
No reported NOTAMs for that airfield.



MET'MAP, your aeronautical weather chart ! - Copyright ORBIFLY December 2007 - Disclaimer

ORBIFLY MET'MAP TEAM :

Programming & Development : Alexandra Zaïnal
Concept & Development : Baudouin d'Aumeries
Co-Development & Prog : Marc-Olivier Méhu
Technical & hardware support : Manuel Goepfert

Contact : metmap@orbifly.com




SOURCES & CREDITS :

   NOAA